Flight Track Log - Related Links

Times and Time Zones

All times are in EDT time to prevent confusion due to time zone crossing. See the JBU917 flight status page for this flight to view local times or setup timezone preferences in your user account.

Time Position Orientation Groundspeed Altitude Reporting Facility
EDT Latitude Longitude Course Direction KTS MPH feet Rate Location/Type
Mon 08:57:26 PM 40.6667 -73.6667 270° West 248 285 3,900  Level New York TRACON
Mon 08:58:26 PM 40.7167 -73.6000 45° Northeast 272 313 7,200 3,050 Climbing New York TRACON
Mon 08:59:00 PM 40.9377 -74.3467 306° West  Level FlightAware Approximate
Mon 08:59:26 PM 40.7833 -73.5333 37° Northeast 287 330 10,000  Level New York TRACON
Mon 09:00:00 PM 41.0046 -74.4593 304° West  Level FlightAware Approximate
Mon 09:01:00 PM 41.0525 -74.5410 294° West  Level FlightAware Approximate
Mon 09:01:40 PM 40.9364 -73.6800 324° Northwest 387 445 14,400  Level New York Center
Mon 09:02:00 PM 41.0959 -74.6272 312° West  Level FlightAware Approximate
Mon 09:02:41 PM 41.0147 -73.7933 313° West 380 437 16,800  Level New York Center
Mon 09:03:00 PM 41.1333 -74.7125 270° West  Level FlightAware Approximate
Mon 09:03:42 PM 41.0364 -73.9208 283° West 380 437 17,000  Level New York Center
Mon 09:04:43 PM 41.0589 -74.0814 281° West 393 452 18,600 1,700 Climbing New York Center
Mon 09:05:42 PM 41.0758 -74.2200 279° West 393 452 20,400 1,900 Climbing New York Center
Mon 09:06:43 PM 41.0944 -74.3667 280° West 398 458 22,400 1,542 Climbing New York Center
Mon 09:08:00 PM 41.1040 -74.5482 279° West  Level FlightAware Approximate
Mon 09:08:41 PM 41.1347 -74.6692 279° West 418 481 25,000  Level New York Center
Mon 09:10:00 PM 41.1868 -74.8395 307° West  Level FlightAware Approximate
Mon 09:10:43 PM 41.2403 -74.9344 307° West 423 487 26,300  Level New York Center
Mon 09:11:40 PM 41.2997 -75.0736 300° West 429 494 27,500 1,190 Climbing New York Center
Mon 09:12:44 PM 41.3592 -75.2128 300° West 435 501 28,700 1,131 Climbing New York Center
Mon 09:13:42 PM 41.4206 -75.3553 300° West 440 506 29,800 1,322 Climbing New York Center
Mon 09:14:42 PM 41.4775 -75.4975 298° West 440 506 31,300 1,388 Climbing New York Center
Mon 09:15:43 PM 41.5289 -75.6647 292° West 440 506 32,600 1,041 Climbing New York Center
Mon 09:16:43 PM 41.5650 -75.7947 290° West 435 501 33,400 966 Climbing New York Center
Mon 09:17:41 PM 41.6086 -75.9478 291° West 430 495 34,500 1,017 Climbing New York Center
Mon 09:18:41 PM 41.6500 -76.0928 291° West 435 501 35,400 750 Climbing New York Center
Mon 09:19:41 PM 41.6911 -76.2403 291° West 435 501 36,000 221 Climbing New York Center
Mon 09:21:00 PM 41.7379 -76.4200 289° West  Level FlightAware Approximate
Mon 09:21:24 PM 41.7694 -76.5208 289° West 441 507 36,000  Level Cleveland Center
Mon 09:22:24 PM 41.8100 -76.6742 290° West 441 507 36,000  Level Cleveland Center
Mon 09:23:24 PM 41.8528 -76.8306 290° West 441 507 36,000  Level Cleveland Center
Mon 09:24:24 PM 41.8928 -76.9678 291° West 441 507 36,000  Level Cleveland Center
Mon 09:25:24 PM 41.9350 -77.1244 290° West 441 507 36,000  Level Cleveland Center
Mon 09:26:24 PM 41.9772 -77.2814 290° West 441 507 36,000  Level Cleveland Center
Mon 09:27:24 PM 42.0192 -77.4414 289° West 447 514 36,000  Level Cleveland Center
Mon 09:28:24 PM 42.0589 -77.5961 289° West 447 514 36,000  Level Cleveland Center
Mon 09:29:24 PM 42.1025 -77.7536 291° West 447 514 36,000  Level Cleveland Center
Mon 09:30:24 PM 42.1436 -77.9144 289° West 447 514 36,000  Level Cleveland Center
Mon 09:31:24 PM 42.1847 -78.0694 290° West 447 514 36,000  Level Cleveland Center
Mon 09:32:24 PM 42.2256 -78.2306 289° West 447 514 36,000  Level Cleveland Center
Mon 09:33:24 PM 42.2664 -78.3919 289° West 447 514 36,000  Level Cleveland Center
Mon 09:34:24 PM 42.3089 -78.5475 290° West 447 514 36,000  Level Cleveland Center
Mon 09:35:24 PM 42.3492 -78.7064 289° West 447 514 36,000  Level Cleveland Center
Mon 09:37:24 PM 42.4269 -79.0278 288° West 447 514 36,000  Level Cleveland Center
Mon 09:38:24 PM 42.4706 -79.1869 290° West 447 514 36,000  Level Cleveland Center
Mon 09:39:24 PM 42.4953 -79.3528 281° West 452 520 36,000  Level Cleveland Center
Mon 09:40:24 PM 42.5033 -79.5186 274° West 447 514 36,000  Level Cleveland Center
Mon 09:41:24 PM 42.5131 -79.6875 275° West 447 514 36,000  Level Cleveland Center
Mon 09:43:24 PM 42.5256 -80.0450 273° West 447 514 36,000  Level Cleveland Center
Mon 09:44:24 PM 42.5347 -80.2142 274° West 458 527 36,000  Level Cleveland Center
Mon 09:45:24 PM 42.5433 -80.3858 274° West 458 527 36,000  Level Cleveland Center
Mon 09:46:24 PM 42.5478 -80.5522 272° West 458 527 36,000  Level Cleveland Center
Mon 09:47:24 PM 42.5539 -80.7242 273° West 458 527 36,000  Level Cleveland Center
Mon 09:49:24 PM 42.5675 -81.0681 273° West 458 527 36,000  Level Cleveland Center
Mon 09:50:24 PM 42.5731 -81.2372 273° West 458 527 36,000  Level Cleveland Center
Mon 09:51:24 PM 42.5803 -81.4094 273° West 458 527 36,000  Level Cleveland Center
Mon 09:52:24 PM 42.6081 -81.5817 282° West 469 540 36,000  Level Cleveland Center
Mon 09:53:24 PM 42.6356 -81.7486 281° West 458 527 36,000  Level Cleveland Center
Mon 09:54:00 PM 42.6405 -81.8121 281° West  Level FlightAware Approximate
Mon 09:54:24 PM 42.6631 -81.9158 283° West 458 527 36,000  Level Cleveland Center
Mon 09:56:00 PM 42.6993 -82.1455 282° West  Level FlightAware Approximate
Mon 09:56:24 PM 42.7211 -82.2533 282° West 458 527 36,000  Level Cleveland Center
Mon 09:58:24 PM 42.7636 -82.5967 280° West 458 527 36,000  Level Cleveland Center
Mon 09:59:24 PM 42.7750 -82.7669 275° West 458 527 36,000  Level Cleveland Center
Mon 10:01:24 PM 42.7972 -83.1100 275° West 463 533 36,000  Level Cleveland Center
Mon 10:02:24 PM 42.8078 -83.2858 275° West 463 533 36,000 -500 Level Cleveland Center
Mon 10:03:24 PM 42.8203 -83.4564 276° West 463 533 35,000 -1,000 Descending Cleveland Center
Mon 10:05:24 PM 42.8403 -83.8056 275° West 463 533 33,000 -1,000 Descending Cleveland Center
Mon 10:06:24 PM 42.8478 -83.9817 273° West 463 533 32,000 -392 Descending Cleveland Center
Mon 10:07:57 PM 42.8533 -84.2283 272° West 465 535 32,000  Level Chicago Center
Mon 10:08:58 PM 42.8444 -84.4028 266° West 463 533 32,000  Level Chicago Center
Mon 10:10:00 PM 42.8350 -84.6142 267° West 465 535 32,000  Level Chicago Center
Mon 10:11:01 PM 42.8261 -84.7914 266° West 470 541 32,000  Level Chicago Center
Mon 10:12:02 PM 42.8161 -84.9675 266° West 468 539 32,000  Level Chicago Center
Mon 10:13:04 PM 42.8067 -85.1442 266° West 470 541 32,000  Level Chicago Center
Mon 10:14:05 PM 42.7969 -85.3211 266° West 468 539 32,000 -393 Level Chicago Center
Mon 10:15:06 PM 42.7850 -85.4992 265° West 472 543 31,200 -1,610 Descending Chicago Center
Mon 10:16:08 PM 42.7550 -85.6725 257° West 469 540 28,700 -2,390 Descending Chicago Center
Mon 10:17:09 PM 42.7256 -85.8369 256° West 450 518 26,300 -2,311 Descending Chicago Center
Mon 10:18:10 PM 42.6975 -85.9953 256° West 432 497 24,000 -2,213 Descending Chicago Center
Mon 10:19:11 PM 42.6689 -86.1469 256° West 416 479 21,800 -1,967 Descending Chicago Center
Mon 10:20:12 PM 42.6428 -86.2914 256° West 398 458 20,000 -878 Descending Chicago Center
Mon 10:21:14 PM 42.6142 -86.4331 255° West 389 448 20,000  Level Chicago Center
Mon 10:22:15 PM 42.5886 -86.5775 257° West 393 452 20,000 -98 Level Chicago Center
Mon 10:23:16 PM 42.5564 -86.7447 255° West 402 463 19,800 -1,279 Descending Chicago Center
Mon 10:24:17 PM 42.5178 -86.8853 250° West 400 460 17,400 -2,410 Descending Chicago Center
Mon 10:25:18 PM 42.4792 -87.0289 250° West 382 440 14,900 -2,341 Descending Chicago Center
Mon 10:26:20 PM 42.4422 -87.1567 249° West 369 425 12,600 -2,244 Descending Chicago Center
Mon 10:27:21 PM 42.4081 -87.2817 250° West 357 411 10,300 -1,279 Descending Chicago Center
Mon 10:28:22 PM 42.3708 -87.4192 250° West 353 406 10,000 -148 Descending Chicago Center
Mon 10:29:23 PM 42.3339 -87.5414 248° West 354 407 10,000  Level Chicago Center
Mon 10:30:25 PM 42.2567 -87.6247 219° Southwest 357 411 10,000  Level Chicago Center
Mon 10:31:26 PM 42.1789 -87.7028 217° Southwest 351 404 10,000 -344 Level Chicago Center
Mon 10:32:27 PM 42.1131 -87.7742 219° Southwest 306 352 9,300 -1,240 Descending Chicago Center
Mon 10:33:27 PM 42.1000 -87.8833 261° West 293 337 7,500 -1,150 Descending Chicago TRACON
Mon 10:34:27 PM 42.1000 -87.9833 270° West 269 310 7,000 -250 Descending Chicago TRACON
Mon 10:35:27 PM 42.1000 -88.0833 270° West 237 273 7,000 -600 Level Chicago TRACON
Mon 10:36:27 PM 42.0833 -88.1667 255° West 236 272 5,800 -1,238 Descending Chicago TRACON
Mon 10:37:33 PM 42.0347 -88.1928 202° Southwest 228 262 4,400 -1,313 Descending Chicago Center
Mon 10:38:35 PM 41.9869 -88.1714 162° South 199 229 3,000 -771 Descending Chicago Center
Mon 10:39:22 PM 41.9667 -88.1167 116° Southeast 189 217 3,000 -503 Level Chicago TRACON
Mon 10:41:22 PM 41.9667 -87.9833 90° East 139 160 1,600 -700 Descending Chicago TRACON
Mon 10:42:22 PM 41.9667 -87.9500 90° East 132 152 900 -700 Descending Chicago TRACON
Mon 10:44:00 PM 41.9667 -87.9000 110° East  Level FlightAware Approximate

Login

Don't have an account? Register now (free) for customized features, flight alerts, and more!